sensor_id;sensor_type;location;lat;lon;timestamp;pressure;altitude;pressure_sealevel;temperature;humidity
40872;BME280;26591;43.264;26.940;2024-02-15T00:00:27;99358.38;;;4.57;67.64
40872;BME280;26591;43.264;26.940;2024-02-15T00:02:53;99353.50;;;4.64;67.23
40872;BME280;26591;43.264;26.940;2024-02-15T00:05:19;99361.81;;;4.58;67.60
40872;BME280;26591;43.264;26.940;2024-02-15T00:07:45;99359.69;;;4.63;67.40
40872;BME280;26591;43.264;26.940;2024-02-15T00:10:13;99352.03;;;4.71;66.95
40872;BME280;26591;43.264;26.940;2024-02-15T00:12:39;99357.31;;;4.60;67.17
40872;BME280;26591;43.264;26.940;2024-02-15T00:15:05;99354.56;;;4.50;68.07
40872;BME280;26591;43.264;26.940;2024-02-15T00:17:30;99360.88;;;4.48;67.95
40872;BME280;26591;43.264;26.940;2024-02-15T00:20:10;99361.72;;;4.37;68.24
40872;BME280;26591;43.264;26.940;2024-02-15T00:22:36;99361.38;;;4.53;68.22
40872;BME280;26591;43.264;26.940;2024-02-15T00:25:02;99362.44;;;4.50;67.84
40872;BME280;26591;43.264;26.940;2024-02-15T00:27:28;99364.94;;;4.63;67.40
40872;BME280;26591;43.264;26.940;2024-02-15T00:29:53;99358.41;;;4.46;67.77
40872;BME280;26591;43.264;26.940;2024-02-15T00:32:18;99351.59;;;4.55;67.38
40872;BME280;26591;43.264;26.940;2024-02-15T00:34:44;99357.63;;;4.78;67.19
40872;BME280;26591;43.264;26.940;2024-02-15T00:37:09;99353.38;;;4.77;67.03
40872;BME280;26591;43.264;26.940;2024-02-15T00:39:35;99356.59;;;4.81;67.36
40872;BME280;26591;43.264;26.940;2024-02-15T00:42:00;99357.28;;;4.71;67.26
40872;BME280;26591;43.264;26.940;2024-02-15T00:44:27;99357.31;;;4.49;67.13
40872;BME280;26591;43.264;26.940;2024-02-15T00:46:52;99349.91;;;4.31;67.89
40872;BME280;26591;43.264;26.940;2024-02-15T00:49:18;99358.41;;;4.46;67.50
40872;BME280;26591;43.264;26.940;2024-02-15T00:51:47;99351.47;;;4.45;67.85
40872;BME280;26591;43.264;26.940;2024-02-15T00:54:13;99348.25;;;4.30;68.09
40872;BME280;26591;43.264;26.940;2024-02-15T00:56:38;99346.13;;;4.35;68.14
40872;BME280;26591;43.264;26.940;2024-02-15T00:59:05;99351.47;;;4.34;67.83
40872;BME280;26591;43.264;26.940;2024-02-15T01:01:31;99345.75;;;4.28;68.16
40872;BME280;26591;43.264;26.940;2024-02-15T01:03:56;99342.53;;;4.25;68.07
40872;BME280;26591;43.264;26.940;2024-02-15T01:06:22;99342.06;;;4.20;68.19
40872;BME280;26591;43.264;26.940;2024-02-15T01:08:47;99333.25;;;4.21;69.07
40872;BME280;26591;43.264;26.940;2024-02-15T01:11:13;99322.88;;;4.42;67.89
40872;BME280;26591;43.264;26.940;2024-02-15T01:13:39;99321.00;;;4.33;67.85
40872;BME280;26591;43.264;26.940;2024-02-15T01:16:04;99333.38;;;4.42;67.74
40872;BME280;26591;43.264;26.940;2024-02-15T01:18:30;99328.00;;;4.21;68.72
40872;BME280;26591;43.264;26.940;2024-02-15T01:20:57;99332.16;;;4.23;68.41
40872;BME280;26591;43.264;26.940;2024-02-15T01:23:25;99333.72;;;4.37;67.76
40872;BME280;26591;43.264;26.940;2024-02-15T01:25:52;99330.25;;;4.25;68.10
40872;BME280;26591;43.264;26.940;2024-02-15T01:28:17;99327.28;;;4.07;68.75
40872;BME280;26591;43.264;26.940;2024-02-15T01:30:43;99322.50;;;4.12;68.89
40872;BME280;26591;43.264;26.940;2024-02-15T01:33:09;99326.91;;;4.01;68.57
40872;BME280;26591;43.264;26.940;2024-02-15T01:35:37;99315.59;;;4.00;68.66
40872;BME280;26591;43.264;26.940;2024-02-15T01:38:03;99322.50;;;4.01;68.90
40872;BME280;26591;43.264;26.940;2024-02-15T01:40:29;99319.06;;;4.12;68.61
40872;BME280;26591;43.264;26.940;2024-02-15T01:42:55;99328.59;;;4.13;68.26
40872;BME280;26591;43.264;26.940;2024-02-15T01:45:21;99340.25;;;4.09;68.30
40872;BME280;26591;43.264;26.940;2024-02-15T01:47:48;99320.72;;;4.13;68.31
40872;BME280;26591;43.264;26.940;2024-02-15T01:50:14;99320.88;;;4.11;68.44
40872;BME280;26591;43.264;26.940;2024-02-15T01:52:42;99329.66;;;4.10;68.21
40872;BME280;26591;43.264;26.940;2024-02-15T01:55:09;99331.34;;;4.11;67.84
40872;BME280;26591;43.264;26.940;2024-02-15T01:57:39;99326.56;;;4.28;67.37
40872;BME280;26591;43.264;26.940;2024-02-15T02:00:06;99327.06;;;4.10;68.02
40872;BME280;26591;43.264;26.940;2024-02-15T02:02:34;99324.66;;;4.19;67.71
40872;BME280;26591;43.264;26.940;2024-02-15T02:05:01;99326.34;;;4.08;68.04
40872;BME280;26591;43.264;26.940;2024-02-15T02:07:27;99322.28;;;4.04;67.86
40872;BME280;26591;43.264;26.940;2024-02-15T02:09:53;99325.03;;;4.25;67.57
40872;BME280;26591;43.264;26.940;2024-02-15T02:12:19;99318.25;;;4.11;67.40
40872;BME280;26591;43.264;26.940;2024-02-15T02:14:45;99333.34;;;4.08;67.40
40872;BME280;26591;43.264;26.940;2024-02-15T02:17:14;99337.75;;;4.07;67.67
40872;BME280;26591;43.264;26.940;2024-02-15T02:19:40;99331.81;;;4.17;67.28
40872;BME280;26591;43.264;26.940;2024-02-15T02:22:05;99336.94;;;4.18;67.30
40872;BME280;26591;43.264;26.940;2024-02-15T02:24:39;99335.72;;;4.22;67.33
40872;BME280;26591;43.264;26.940;2024-02-15T02:27:07;99340.16;;;4.10;67.10
40872;BME280;26591;43.264;26.940;2024-02-15T02:29:35;99352.25;;;4.00;67.25
40872;BME280;26591;43.264;26.940;2024-02-15T02:32:01;99356.69;;;4.00;67.52
40872;BME280;26591;43.264;26.940;2024-02-15T02:34:26;99369.06;;;4.09;67.39
40872;BME280;26591;43.264;26.940;2024-02-15T02:36:52;99367.03;;;4.01;67.55
40872;BME280;26591;43.264;26.940;2024-02-15T02:39:18;99366.56;;;3.96;68.05
40872;BME280;26591;43.264;26.940;2024-02-15T02:41:43;99365.41;;;4.11;67.72
40872;BME280;26591;43.264;26.940;2024-02-15T02:44:09;99365.84;;;4.05;67.62
40872;BME280;26591;43.264;26.940;2024-02-15T02:46:34;99364.41;;;4.12;67.45
40872;BME280;26591;43.264;26.940;2024-02-15T02:49:00;99356.97;;;3.84;68.11
40872;BME280;26591;43.264;26.940;2024-02-15T02:51:26;99361.53;;;3.81;68.43
40872;BME280;26591;43.264;26.940;2024-02-15T02:53:51;99369.63;;;4.01;68.03
40872;BME280;26591;43.264;26.940;2024-02-15T02:56:17;99378.72;;;4.20;67.24
40872;BME280;26591;43.264;26.940;2024-02-15T02:58:43;99374.44;;;4.07;67.86
40872;BME280;26591;43.264;26.940;2024-02-15T03:01:10;99375.72;;;4.02;67.66
40872;BME280;26591;43.264;26.940;2024-02-15T03:03:36;99379.16;;;3.91;67.80
40872;BME280;26591;43.264;26.940;2024-02-15T03:06:03;99367.94;;;3.89;68.62
40872;BME280;26591;43.264;26.940;2024-02-15T03:08:29;99364.53;;;4.00;67.78
40872;BME280;26591;43.264;26.940;2024-02-15T03:10:55;99367.25;;;3.98;68.17
40872;BME280;26591;43.264;26.940;2024-02-15T03:13:21;99368.97;;;4.33;67.67
40872;BME280;26591;43.264;26.940;2024-02-15T03:15:46;99375.09;;;3.98;67.80
40872;BME280;26591;43.264;26.940;2024-02-15T03:18:17;99379.66;;;3.96;68.21
40872;BME280;26591;43.264;26.940;2024-02-15T03:20:43;99373.78;;;3.92;68.17
40872;BME280;26591;43.264;26.940;2024-02-15T03:23:09;99368.91;;;3.88;68.10
40872;BME280;26591;43.264;26.940;2024-02-15T03:25:41;99363.78;;;3.86;68.67
40872;BME280;26591;43.264;26.940;2024-02-15T03:28:07;99371.50;;;3.88;68.36
40872;BME280;26591;43.264;26.940;2024-02-15T03:30:33;99364.59;;;3.87;68.53
40872;BME280;26591;43.264;26.940;2024-02-15T03:32:59;99363.50;;;3.78;68.30
40872;BME280;26591;43.264;26.940;2024-02-15T03:35:27;99367.81;;;3.90;68.25
40872;BME280;26591;43.264;26.940;2024-02-15T03:37:53;99360.88;;;3.78;68.34
40872;BME280;26591;43.264;26.940;2024-02-15T03:40:20;99376.72;;;3.76;68.47
40872;BME280;26591;43.264;26.940;2024-02-15T03:42:51;99366.84;;;3.80;68.50
40872;BME280;26591;43.264;26.940;2024-02-15T03:45:17;99364.81;;;3.72;68.24
40872;BME280;26591;43.264;26.940;2024-02-15T03:47:42;99365.78;;;3.82;68.35
40872;BME280;26591;43.264;26.940;2024-02-15T03:50:08;99376.66;;;3.89;68.01
40872;BME280;26591;43.264;26.940;2024-02-15T03:52:40;99371.72;;;3.73;68.01
40872;BME280;26591;43.264;26.940;2024-02-15T03:55:07;99377.44;;;3.78;68.08
40872;BME280;26591;43.264;26.940;2024-02-15T03:57:33;99374.09;;;3.76;68.17
40872;BME280;26591;43.264;26.940;2024-02-15T03:59:59;99373.94;;;3.66;68.41
40872;BME280;26591;43.264;26.940;2024-02-15T04:02:25;99374.69;;;3.80;68.16
40872;BME280;26591;43.264;26.940;2024-02-15T04:04:55;99364.47;;;3.77;68.41
40872;BME280;26591;43.264;26.940;2024-02-15T04:07:24;99365.53;;;3.74;68.12
40872;BME280;26591;43.264;26.940;2024-02-15T04:09:54;99368.16;;;3.74;68.16
40872;BME280;26591;43.264;26.940;2024-02-15T04:12:20;99358.41;;;3.76;68.20
40872;BME280;26591;43.264;26.940;2024-02-15T04:14:46;99361.38;;;3.72;68.52
40872;BME280;26591;43.264;26.940;2024-02-15T04:17:13;99374.09;;;3.76;68.35
40872;BME280;26591;43.264;26.940;2024-02-15T04:19:41;99366.94;;;3.67;68.34
40872;BME280;26591;43.264;26.940;2024-02-15T04:22:06;99365.50;;;3.63;68.49
40872;BME280;26591;43.264;26.940;2024-02-15T04:24:37;99373.56;;;3.60;68.72
40872;BME280;26591;43.264;26.940;2024-02-15T04:27:09;99381.41;;;3.60;68.69
40872;BME280;26591;43.264;26.940;2024-02-15T04:29:37;99379.25;;;3.54;69.34
40872;BME280;26591;43.264;26.940;2024-02-15T04:32:05;99379.75;;;3.59;69.15
40872;BME280;26591;43.264;26.940;2024-02-15T04:34:36;99382.72;;;3.54;69.30
40872;BME280;26591;43.264;26.940;2024-02-15T04:37:03;99390.22;;;3.59;68.56
40872;BME280;26591;43.264;26.940;2024-02-15T04:39:37;99386.53;;;3.61;68.98
40872;BME280;26591;43.264;26.940;2024-02-15T04:42:03;99383.31;;;3.58;69.35
40872;BME280;26591;43.264;26.940;2024-02-15T04:44:31;99395.41;;;3.47;69.64
40872;BME280;26591;43.264;26.940;2024-02-15T04:47:00;99390.28;;;3.46;69.66
40872;BME280;26591;43.264;26.940;2024-02-15T04:49:26;99402.47;;;3.58;69.40
40872;BME280;26591;43.264;26.940;2024-02-15T04:51:54;99399.13;;;3.56;69.22
40872;BME280;26591;43.264;26.940;2024-02-15T04:54:20;99408.59;;;3.46;69.91
40872;BME280;26591;43.264;26.940;2024-02-15T04:56:45;99411.00;;;3.49;69.36
40872;BME280;26591;43.264;26.940;2024-02-15T04:59:11;99419.75;;;3.61;69.20
40872;BME280;26591;43.264;26.940;2024-02-15T05:01:41;99426.34;;;3.54;69.56
40872;BME280;26591;43.264;26.940;2024-02-15T05:04:11;99418.28;;;3.57;69.62
40872;BME280;26591;43.264;26.940;2024-02-15T05:06:37;99419.56;;;3.51;69.80
40872;BME280;26591;43.264;26.940;2024-02-15T05:09:03;99407.94;;;3.55;69.48
40872;BME280;26591;43.264;26.940;2024-02-15T05:11:48;99409.06;;;3.40;70.30
40872;BME280;26591;43.264;26.940;2024-02-15T05:14:14;99425.69;;;3.39;70.48
40872;BME280;26591;43.264;26.940;2024-02-15T05:16:47;99423.13;;;3.50;70.07
40872;BME280;26591;43.264;26.940;2024-02-15T05:19:17;99422.13;;;3.40;70.94
40872;BME280;26591;43.264;26.940;2024-02-15T05:21:46;99435.25;;;3.51;70.20
40872;BME280;26591;43.264;26.940;2024-02-15T05:24:13;99435.38;;;3.49;69.63
40872;BME280;26591;43.264;26.940;2024-02-15T05:26:43;99442.56;;;3.59;70.62
40872;BME280;26591;43.264;26.940;2024-02-15T05:29:12;99447.75;;;3.47;70.20
40872;BME280;26591;43.264;26.940;2024-02-15T05:31:38;99450.19;;;3.62;70.06
40872;BME280;26591;43.264;26.940;2024-02-15T05:34:05;99458.78;;;3.64;70.08
40872;BME280;26591;43.264;26.940;2024-02-15T05:36:32;99453.34;;;3.67;69.42
40872;BME280;26591;43.264;26.940;2024-02-15T05:38:59;99464.66;;;3.79;69.85
40872;BME280;26591;43.264;26.940;2024-02-15T05:41:25;99480.72;;;4.46;73.28
40872;BME280;26591;43.264;26.940;2024-02-15T05:43:50;99479.81;;;5.15;72.31
40872;BME280;26591;43.264;26.940;2024-02-15T05:46:19;99481.56;;;5.60;69.65
40872;BME280;26591;43.264;26.940;2024-02-15T05:48:48;99470.91;;;5.06;65.16
40872;BME280;26591;43.264;26.940;2024-02-15T05:51:14;99479.84;;;4.81;65.83
40872;BME280;26591;43.264;26.940;2024-02-15T05:53:40;99473.72;;;4.46;66.66
40872;BME280;26591;43.264;26.940;2024-02-15T05:56:07;99480.25;;;4.40;66.93
40872;BME280;26591;43.264;26.940;2024-02-15T05:58:34;99488.81;;;4.42;66.98
40872;BME280;26591;43.264;26.940;2024-02-15T06:01:00;99481.78;;;4.32;67.69
40872;BME280;26591;43.264;26.940;2024-02-15T06:03:29;99487.19;;;4.53;67.03
40872;BME280;26591;43.264;26.940;2024-02-15T06:05:57;99495.84;;;4.42;67.14
40872;BME280;26591;43.264;26.940;2024-02-15T06:08:24;99489.91;;;4.40;67.13
40872;BME280;26591;43.264;26.940;2024-02-15T06:10:50;99486.69;;;4.48;67.09
40872;BME280;26591;43.264;26.940;2024-02-15T06:13:17;99488.25;;;4.50;66.98
40872;BME280;26591;43.264;26.940;2024-02-15T06:15:42;99488.59;;;4.57;66.96
40872;BME280;26591;43.264;26.940;2024-02-15T06:18:08;99485.75;;;4.60;66.89
40872;BME280;26591;43.264;26.940;2024-02-15T06:20:37;99485.19;;;4.79;66.28
40872;BME280;26591;43.264;26.940;2024-02-15T06:23:04;99484.13;;;4.82;65.99
40872;BME280;26591;43.264;26.940;2024-02-15T06:25:32;99480.78;;;4.80;65.80
40872;BME280;26591;43.264;26.940;2024-02-15T06:27:57;99486.25;;;4.77;66.20
40872;BME280;26591;43.264;26.940;2024-02-15T06:30:39;99486.41;;;4.86;65.72
40872;BME280;26591;43.264;26.940;2024-02-15T06:33:22;99485.19;;;5.13;65.99
40872;BME280;26591;43.264;26.940;2024-02-15T06:36:07;99488.56;;;5.71;65.58
40872;BME280;26591;43.264;26.940;2024-02-15T06:38:51;99497.38;;;5.81;62.98
40872;BME280;26591;43.264;26.940;2024-02-15T06:41:35;99488.44;;;5.72;62.88
40872;BME280;26591;43.264;26.940;2024-02-15T06:44:00;99496.75;;;5.89;62.33
40872;BME280;26591;43.264;26.940;2024-02-15T06:46:26;99496.13;;;6.08;61.97
40872;BME280;26591;43.264;26.940;2024-02-15T06:48:52;99500.50;;;6.19;61.85
40872;BME280;26591;43.264;26.940;2024-02-15T06:51:18;99500.25;;;6.43;61.35
40872;BME280;26591;43.264;26.940;2024-02-15T06:53:44;99493.56;;;6.39;60.79
40872;BME280;26591;43.264;26.940;2024-02-15T06:56:09;99502.31;;;6.39;61.07
40872;BME280;26591;43.264;26.940;2024-02-15T06:58:36;99499.94;;;6.04;61.27
40872;BME280;26591;43.264;26.940;2024-02-15T07:01:01;99503.94;;;5.87;62.02
40872;BME280;26591;43.264;26.940;2024-02-15T07:03:28;99500.72;;;5.83;62.34
40872;BME280;26591;43.264;26.940;2024-02-15T07:05:55;99504.00;;;6.08;62.16
40872;BME280;26591;43.264;26.940;2024-02-15T07:08:21;99507.41;;;5.76;62.63
40872;BME280;26591;43.264;26.940;2024-02-15T07:10:50;99509.38;;;5.51;63.47
40872;BME280;26591;43.264;26.940;2024-02-15T07:13:17;99507.94;;;5.58;63.08
40872;BME280;26591;43.264;26.940;2024-02-15T07:15:43;99514.00;;;5.70;62.62
40872;BME280;26591;43.264;26.940;2024-02-15T07:18:09;99502.97;;;5.88;62.82
40872;BME280;26591;43.264;26.940;2024-02-15T07:20:36;99505.66;;;6.09;62.06
40872;BME280;26591;43.264;26.940;2024-02-15T07:23:02;99502.88;;;6.64;61.53
40872;BME280;26591;43.264;26.940;2024-02-15T07:25:28;99511.06;;;7.23;59.91
40872;BME280;26591;43.264;26.940;2024-02-15T07:27:54;99506.94;;;7.40;58.30
40872;BME280;26591;43.264;26.940;2024-02-15T07:30:20;99503.03;;;7.95;57.61
40872;BME280;26591;43.264;26.940;2024-02-15T07:32:45;99508.47;;;8.03;56.35
40872;BME280;26591;43.264;26.940;2024-02-15T07:35:11;99502.47;;;7.91;56.74
40872;BME280;26591;43.264;26.940;2024-02-15T07:37:39;99515.50;;;8.62;55.84
40872;BME280;26591;43.264;26.940;2024-02-15T07:40:05;99503.53;;;8.77;55.40
40872;BME280;26591;43.264;26.940;2024-02-15T07:42:33;99517.78;;;9.04;54.52
40872;BME280;26591;43.264;26.940;2024-02-15T07:45:00;99516.72;;;9.25;54.23
40872;BME280;26591;43.264;26.940;2024-02-15T07:47:26;99511.78;;;9.68;53.04
40872;BME280;26591;43.264;26.940;2024-02-15T07:49:52;99516.16;;;9.77;51.78
40872;BME280;26591;43.264;26.940;2024-02-15T07:52:17;99514.44;;;10.22;51.68
40872;BME280;26591;43.264;26.940;2024-02-15T07:54:43;99518.72;;;10.23;51.22
40872;BME280;26591;43.264;26.940;2024-02-15T07:57:08;99516.50;;;9.92;51.96
40872;BME280;26591;43.264;26.940;2024-02-15T07:59:34;99524.50;;;10.18;51.18
40872;BME280;26591;43.264;26.940;2024-02-15T08:02:01;99513.91;;;10.18;50.93
40872;BME280;26591;43.264;26.940;2024-02-15T08:04:26;99507.75;;;9.08;53.19
40872;BME280;26591;43.264;26.940;2024-02-15T08:06:54;99507.38;;;8.93;53.39
40872;BME280;26591;43.264;26.940;2024-02-15T08:09:20;99509.59;;;8.50;53.78
40872;BME280;26591;43.264;26.940;2024-02-15T08:11:52;99516.22;;;8.44;54.56
40872;BME280;26591;43.264;26.940;2024-02-15T08:14:17;99505.38;;;7.98;56.23
40872;BME280;26591;43.264;26.940;2024-02-15T08:16:43;99501.75;;;7.60;56.85
40872;BME280;26591;43.264;26.940;2024-02-15T08:19:08;99503.94;;;7.55;56.99
40872;BME280;26591;43.264;26.940;2024-02-15T08:21:34;99515.03;;;7.48;57.70
40872;BME280;26591;43.264;26.940;2024-02-15T08:24:02;99505.72;;;7.44;58.21
40872;BME280;26591;43.264;26.940;2024-02-15T08:26:38;99512.25;;;7.50;57.75
40872;BME280;26591;43.264;26.940;2024-02-15T08:29:11;99508.28;;;7.75;57.22
40872;BME280;26591;43.264;26.940;2024-02-15T08:31:37;99512.41;;;7.68;57.90
40872;BME280;26591;43.264;26.940;2024-02-15T08:34:02;99509.66;;;7.19;59.06
40872;BME280;26591;43.264;26.940;2024-02-15T08:36:30;99513.81;;;7.22;59.15
40872;BME280;26591;43.264;26.940;2024-02-15T08:38:56;99515.88;;;7.18;59.20
40872;BME280;26591;43.264;26.940;2024-02-15T08:41:22;99515.25;;;7.36;58.51
40872;BME280;26591;43.264;26.940;2024-02-15T08:43:52;99503.09;;;7.44;58.50
40872;BME280;26591;43.264;26.940;2024-02-15T08:46:17;99508.28;;;7.66;57.94
40872;BME280;26591;43.264;26.940;2024-02-15T08:48:43;99507.75;;;8.01;57.98
40872;BME280;26591;43.264;26.940;2024-02-15T08:51:09;99500.91;;;7.69;58.07
40872;BME280;26591;43.264;26.940;2024-02-15T08:53:35;99502.47;;;7.91;57.56
40872;BME280;26591;43.264;26.940;2024-02-15T08:56:04;99509.41;;;7.92;58.39
40872;BME280;26591;43.264;26.940;2024-02-15T08:58:30;99513.00;;;7.72;59.12
40872;BME280;26591;43.264;26.940;2024-02-15T09:00:56;99511.19;;;7.72;58.93
40872;BME280;26591;43.264;26.940;2024-02-15T09:03:22;99509.69;;;7.29;60.25
40872;BME280;26591;43.264;26.940;2024-02-15T09:05:47;99499.75;;;7.42;60.53
40872;BME280;26591;43.264;26.940;2024-02-15T09:08:13;99504.50;;;7.58;59.42
40872;BME280;26591;43.264;26.940;2024-02-15T09:10:41;99498.72;;;7.74;59.72
40872;BME280;26591;43.264;26.940;2024-02-15T09:13:08;99486.44;;;7.44;59.90
40872;BME280;26591;43.264;26.940;2024-02-15T09:15:33;99484.00;;;7.62;60.36
40872;BME280;26591;43.264;26.940;2024-02-15T09:17:59;99487.88;;;7.58;60.39
40872;BME280;26591;43.264;26.940;2024-02-15T09:20:24;99478.69;;;7.42;60.22
40872;BME280;26591;43.264;26.940;2024-02-15T09:22:54;99475.09;;;7.43;60.28
40872;BME280;26591;43.264;26.940;2024-02-15T09:25:21;99470.38;;;7.47;60.51
40872;BME280;26591;43.264;26.940;2024-02-15T09:27:50;99477.28;;;7.38;60.56
40872;BME280;26591;43.264;26.940;2024-02-15T09:30:17;99482.91;;;7.24;61.44
40872;BME280;26591;43.264;26.940;2024-02-15T09:32:44;99474.94;;;7.35;61.19
40872;BME280;26591;43.264;26.940;2024-02-15T09:35:11;99480.75;;;7.39;61.62
40872;BME280;26591;43.264;26.940;2024-02-15T09:37:46;99475.22;;;7.52;60.24
40872;BME280;26591;43.264;26.940;2024-02-15T09:40:14;99471.22;;;7.57;60.89
40872;BME280;26591;43.264;26.940;2024-02-15T09:42:43;99460.59;;;7.78;60.33
40872;BME280;26591;43.264;26.940;2024-02-15T09:45:11;99457.09;;;7.68;60.60
40872;BME280;26591;43.264;26.940;2024-02-15T09:47:38;99454.31;;;7.79;60.26
40872;BME280;26591;43.264;26.940;2024-02-15T09:50:11;99445.34;;;7.92;60.07
40872;BME280;26591;43.264;26.940;2024-02-15T09:52:39;99441.00;;;8.10;59.32
40872;BME280;26591;43.264;26.940;2024-02-15T09:55:07;99449.16;;;8.66;58.36
40872;BME280;26591;43.264;26.940;2024-02-15T09:57:38;99440.63;;;8.73;58.15
40872;BME280;26591;43.264;26.940;2024-02-15T10:00:04;99439.56;;;9.03;57.41
40872;BME280;26591;43.264;26.940;2024-02-15T10:02:38;99443.59;;;8.97;57.31
40872;BME280;26591;43.264;26.940;2024-02-15T10:05:05;99436.56;;;9.16;56.97
40872;BME280;26591;43.264;26.940;2024-02-15T10:07:31;99424.81;;;9.28;56.78
40872;BME280;26591;43.264;26.940;2024-02-15T10:10:17;99430.81;;;9.85;55.78
40872;BME280;26591;43.264;26.940;2024-02-15T10:12:44;99430.03;;;10.11;55.23
40872;BME280;26591;43.264;26.940;2024-02-15T10:15:09;99427.97;;;10.22;54.30
40872;BME280;26591;43.264;26.940;2024-02-15T10:17:35;99427.31;;;10.20;53.83
40872;BME280;26591;43.264;26.940;2024-02-15T10:20:05;99426.88;;;10.51;53.38
40872;BME280;26591;43.264;26.940;2024-02-15T10:22:31;99417.94;;;10.79;52.94
40872;BME280;26591;43.264;26.940;2024-02-15T10:25:12;99424.53;;;10.48;52.81
40872;BME280;26591;43.264;26.940;2024-02-15T10:28:04;99427.25;;;10.57;53.65
40872;BME280;26591;43.264;26.940;2024-02-15T10:30:40;99426.38;;;10.48;53.13
40872;BME280;26591;43.264;26.940;2024-02-15T10:33:09;99422.13;;;10.37;53.92
40872;BME280;26591;43.264;26.940;2024-02-15T10:35:34;99419.88;;;9.80;54.87
40872;BME280;26591;43.264;26.940;2024-02-15T10:38:10;99406.72;;;9.34;55.77
40872;BME280;26591;43.264;26.940;2024-02-15T10:40:37;99426.34;;;9.31;56.01
40872;BME280;26591;43.264;26.940;2024-02-15T10:43:03;99431.06;;;9.27;56.43
40872;BME280;26591;43.264;26.940;2024-02-15T10:45:31;99412.03;;;9.06;57.40
40872;BME280;26591;43.264;26.940;2024-02-15T10:48:19;99411.09;;;8.97;57.46
40872;BME280;26591;43.264;26.940;2024-02-15T10:50:46;99407.78;;;8.57;58.81
40872;BME280;26591;43.264;26.940;2024-02-15T10:53:31;99415.56;;;8.59;58.39
40872;BME280;26591;43.264;26.940;2024-02-15T10:58:47;99412.00;;;8.78;58.70
40872;BME280;26591;43.264;26.940;2024-02-15T11:01:17;99385.81;;;8.66;58.60
40872;BME280;26591;43.264;26.940;2024-02-15T11:03:57;99407.25;;;8.53;59.46
40872;BME280;26591;43.264;26.940;2024-02-15T11:06:26;99410.16;;;8.40;59.67
40872;BME280;26591;43.264;26.940;2024-02-15T11:08:52;99417.38;;;8.48;60.17
40872;BME280;26591;43.264;26.940;2024-02-15T11:11:19;99403.38;;;8.48;59.82
40872;BME280;26591;43.264;26.940;2024-02-15T11:13:46;99397.94;;;8.87;58.88
40872;BME280;26591;43.264;26.940;2024-02-15T11:16:39;99394.97;;;9.00;58.72
40872;BME280;26591;43.264;26.940;2024-02-15T11:19:05;99399.38;;;8.72;58.83
40872;BME280;26591;43.264;26.940;2024-02-15T11:21:54;99397.81;;;8.51;58.33
40872;BME280;26591;43.264;26.940;2024-02-15T11:24:28;99391.00;;;8.48;58.63
40872;BME280;26591;43.264;26.940;2024-02-15T11:27:01;99381.38;;;8.47;58.62
40872;BME280;26591;43.264;26.940;2024-02-15T11:29:55;99392.22;;;8.92;57.95
40872;BME280;26591;43.264;26.940;2024-02-15T11:35:25;99373.34;;;9.32;56.63
40872;BME280;26591;43.264;26.940;2024-02-15T11:37:54;99384.53;;;9.44;56.48
40872;BME280;26591;43.264;26.940;2024-02-15T11:40:25;99372.16;;;9.45;56.31
40872;BME280;26591;43.264;26.940;2024-02-15T11:42:56;99371.50;;;9.61;55.45
40872;BME280;26591;43.264;26.940;2024-02-15T11:45:28;99359.78;;;9.64;56.02
40872;BME280;26591;43.264;26.940;2024-02-15T11:47:59;99366.41;;;9.68;55.63
40872;BME280;26591;43.264;26.940;2024-02-15T11:50:27;99363.25;;;9.82;55.48
40872;BME280;26591;43.264;26.940;2024-02-15T11:53:02;99358.50;;;9.68;54.92
40872;BME280;26591;43.264;26.940;2024-02-15T11:55:34;99346.72;;;9.44;56.33
40872;BME280;26591;43.264;26.940;2024-02-15T11:58:02;99359.25;;;9.60;55.52
40872;BME280;26591;43.264;26.940;2024-02-15T12:00:42;99349.75;;;9.31;56.37
40872;BME280;26591;43.264;26.940;2024-02-15T12:03:28;99339.13;;;9.41;55.77
40872;BME280;26591;43.264;26.940;2024-02-15T12:06:12;99336.38;;;9.32;55.92
40872;BME280;26591;43.264;26.940;2024-02-15T12:09:00;99338.31;;;9.12;56.72
40872;BME280;26591;43.264;26.940;2024-02-15T12:11:45;99325.88;;;9.23;56.76
40872;BME280;26591;43.264;26.940;2024-02-15T12:14:29;99332.00;;;9.23;56.85
40872;BME280;26591;43.264;26.940;2024-02-15T12:17:44;99337.06;;;9.16;56.56
40872;BME280;26591;43.264;26.940;2024-02-15T12:20:28;99335.63;;;9.22;56.94
40872;BME280;26591;43.264;26.940;2024-02-15T12:22:54;99344.75;;;9.28;56.23
40872;BME280;26591;43.264;26.940;2024-02-15T12:25:20;99337.75;;;9.37;56.00
40872;BME280;26591;43.264;26.940;2024-02-15T12:27:46;99335.56;;;9.32;56.59
40872;BME280;26591;43.264;26.940;2024-02-15T12:30:17;99336.38;;;9.32;56.38
40872;BME280;26591;43.264;26.940;2024-02-15T12:32:47;99341.13;;;9.11;56.24
40872;BME280;26591;43.264;26.940;2024-02-15T12:35:19;99347.16;;;9.21;56.14
40872;BME280;26591;43.264;26.940;2024-02-15T12:40:34;99321.72;;;9.38;55.76
40872;BME280;26591;43.264;26.940;2024-02-15T12:43:00;99316.44;;;9.56;55.84
40872;BME280;26591;43.264;26.940;2024-02-15T12:45:26;99309.81;;;9.16;56.66
40872;BME280;26591;43.264;26.940;2024-02-15T12:47:56;99323.53;;;9.20;56.71
40872;BME280;26591;43.264;26.940;2024-02-15T12:50:31;99329.94;;;9.35;56.25
40872;BME280;26591;43.264;26.940;2024-02-15T12:52:57;99316.00;;;9.25;56.35
40872;BME280;26591;43.264;26.940;2024-02-15T12:55:35;99322.19;;;9.34;56.30
40872;BME280;26591;43.264;26.940;2024-02-15T12:58:02;99319.97;;;9.83;55.35
40872;BME280;26591;43.264;26.940;2024-02-15T13:00:34;99319.50;;;9.88;54.89
40872;BME280;26591;43.264;26.940;2024-02-15T13:03:06;99325.41;;;9.64;55.10
40872;BME280;26591;43.264;26.940;2024-02-15T13:05:35;99316.16;;;9.86;55.35
40872;BME280;26591;43.264;26.940;2024-02-15T13:08:04;99319.28;;;9.81;54.60
40872;BME280;26591;43.264;26.940;2024-02-15T13:10:38;99325.56;;;9.80;54.49
40872;BME280;26591;43.264;26.940;2024-02-15T13:13:06;99318.19;;;9.48;55.17
40872;BME280;26591;43.264;26.940;2024-02-15T13:15:34;99328.66;;;9.75;54.95